Time;durP1;ratioP1;P1;durP2;ratioP2;P2;SDS_P1;SDS_P2;PMS_P1;PMS_P2;Temp;Humidity;BMP_temperature;BMP_pressure;BME280_temperature;BME280_humidity;BME280_pressure;Samples;Min_cycle;Max_cycle;Signal;HPM_P1;HPM_P2
2022/10/15 00:02:06;;;;;;;1.00;0.70;;;15.90;99.90;;;;;;5033486;28;20189;-63
2022/10/15 00:04:32;;;;;;;0.73;0.50;;;16.00;99.90;;;;;;5025212;28;20222;-64
2022/10/15 00:06:58;;;;;;;0.70;0.70;;;15.80;99.90;;;;;;5032919;28;20671;-63
2022/10/15 00:09:24;;;;;;;1.00;0.60;;;16.00;99.90;;;;;;5032951;28;20209;-63
2022/10/15 00:11:50;;;;;;;1.93;0.60;;;15.80;99.90;;;;;;5028517;28;20214;-63
2022/10/15 00:14:16;;;;;;;3.83;0.60;;;15.90;99.90;;;;;;5026039;28;20514;-63
2022/10/15 00:16:41;;;;;;;0.65;0.50;;;15.90;99.90;;;;;;5026538;28;20463;-61
2022/10/15 00:19:08;;;;;;;0.87;0.60;;;15.90;99.90;;;;;;5024780;28;20228;-61
2022/10/15 00:21:34;;;;;;;0.80;0.60;;;16.10;99.90;;;;;;5029573;28;20190;-61
2022/10/15 00:24:00;;;;;;;0.80;0.60;;;15.90;99.90;;;;;;5021873;28;20202;-61
2022/10/15 00:26:28;;;;;;;0.87;0.87;;;15.90;99.90;;;;;;5032514;28;20189;-61
2022/10/15 00:28:58;;;;;;;1.17;0.60;;;15.90;99.90;;;;;;5026173;28;20469;-60
2022/10/15 00:31:26;;;;;;;0.70;0.50;;;15.90;99.90;;;;;;5026128;28;20378;-63
2022/10/15 00:33:53;;;;;;;0.70;0.60;;;15.80;99.90;;;;;;5022692;28;20207;-63
2022/10/15 00:36:28;;;;;;;0.70;0.70;;;16.00;99.90;;;;;;5030002;28;20174;-63
2022/10/15 00:38:53;;;;;;;1.90;0.70;;;15.90;99.90;;;;;;5026721;28;20178;-63
2022/10/15 00:41:22;;;;;;;0.80;0.60;;;16.10;99.90;;;;;;5032810;28;20193;-63
2022/10/15 00:43:50;;;;;;;3.88;0.85;;;16.10;99.90;;;;;;5025759;28;20292;-63
2022/10/15 00:46:23;;;;;;;0.60;0.57;;;16.00;99.90;;;;;;5032043;28;20229;-60
2022/10/15 00:48:54;;;;;;;1.35;0.60;;;16.10;99.90;;;;;;5029843;28;20175;-60
2022/10/15 00:51:22;;;;;;;0.80;0.70;;;16.00;99.90;;;;;;5031044;28;20193;-62
2022/10/15 00:53:49;;;;;;;0.68;0.55;;;16.00;99.90;;;;;;5030234;28;20574;-61
2022/10/15 00:56:19;;;;;;;0.90;0.60;;;16.00;99.90;;;;;;5034337;28;20181;-61
2022/10/15 00:58:45;;;;;;;0.70;0.68;;;16.00;99.90;;;;;;5029043;28;20595;-61
2022/10/15 01:01:11;;;;;;;0.70;0.60;;;16.00;99.90;;;;;;5032485;28;20186;-61
2022/10/15 01:03:36;;;;;;;0.90;0.60;;;16.00;99.90;;;;;;5030628;28;20264;-61
2022/10/15 01:06:03;;;;;;;1.57;0.60;;;16.00;99.90;;;;;;5032883;28;20546;-61
2022/10/15 01:08:29;;;;;;;1.88;0.60;;;16.20;99.90;;;;;;5025130;28;20198;-61
2022/10/15 01:11:32;;;;;;;0.70;0.57;;;16.10;99.90;;;;;;5030507;28;20596;-61
2022/10/15 01:14:04;;;;;;;0.70;0.60;;;16.00;99.90;;;;;;5030852;28;20468;-61
2022/10/15 01:16:29;;;;;;;0.60;0.50;;;16.00;99.90;;;;;;5032085;28;20608;-61
2022/10/15 01:19:05;;;;;;;1.37;0.70;;;16.10;99.90;;;;;;5029083;28;20273;-61
2022/10/15 01:21:43;;;;;;;0.70;0.60;;;16.10;99.90;;;;;;5025394;28;20667;-61
2022/10/15 01:24:11;;;;;;;0.85;0.80;;;16.10;99.90;;;;;;5024559;28;20242;-61
2022/10/15 01:27:02;;;;;;;0.65;0.57;;;16.10;99.90;;;;;;5029767;28;20674;-61
2022/10/15 01:29:46;;;;;;;0.60;0.50;;;16.10;99.90;;;;;;5029938;28;20190;-61
2022/10/15 01:32:17;;;;;;;0.60;0.60;;;16.40;99.90;;;;;;5027721;28;20194;-61
2022/10/15 01:35:07;;;;;;;0.60;0.50;;;16.10;99.90;;;;;;5024270;28;20210;-61
2022/10/15 01:37:58;;;;;;;1.63;0.70;;;16.10;99.90;;;;;;5025712;28;20194;-61
2022/10/15 01:40:35;;;;;;;0.70;0.50;;;16.10;99.90;;;;;;5024872;28;20190;-61
2022/10/15 01:43:05;;;;;;;3.35;0.60;;;16.10;99.90;;;;;;5024795;28;20375;-61
2022/10/15 01:45:39;;;;;;;1.50;0.80;;;16.10;99.90;;;;;;5026393;28;20204;-61
2022/10/15 01:48:10;;;;;;;0.77;0.50;;;16.10;99.90;;;;;;5024239;28;20177;-61
2022/10/15 01:50:41;;;;;;;1.88;0.60;;;16.10;99.90;;;;;;5026897;28;20180;-61
2022/10/15 01:53:10;;;;;;;0.90;0.70;;;16.10;99.90;;;;;;5023276;28;20210;-61
2022/10/15 01:55:40;;;;;;;0.70;0.52;;;16.20;99.90;;;;;;5021399;28;20182;-61
2022/10/15 01:58:08;;;;;;;0.70;0.50;;;16.10;99.90;;;;;;5025351;28;20189;-61
2022/10/15 02:00:33;;;;;;;0.70;0.60;;;16.10;99.90;;;;;;5031552;28;20275;-61
2022/10/15 02:03:00;;;;;;;0.67;0.50;;;16.10;99.90;;;;;;5030144;28;20182;-61
2022/10/15 02:05:29;;;;;;;4.00;0.70;;;16.00;99.90;;;;;;5027444;28;20225;-61
2022/10/15 02:08:39;;;;;;;1.08;0.50;;;16.10;99.90;;;;;;5037355;28;20555;-61
2022/10/15 02:11:13;;;;;;;0.98;0.60;;;16.30;99.90;;;;;;5020454;28;20186;-61
2022/10/15 02:14:03;;;;;;;0.70;0.50;;;16.10;99.90;;;;;;5016102;28;20186;-61
2022/10/15 02:16:46;;;;;;;0.70;0.50;;;16.30;99.90;;;;;;5033530;28;20187;-61
2022/10/15 02:19:19;;;;;;;1.40;0.60;;;16.00;99.90;;;;;;5023187;28;20294;-61
2022/10/15 02:21:56;;;;;;;0.70;0.50;;;16.10;99.90;;;;;;5018252;28;20236;-61
2022/10/15 02:24:32;;;;;;;0.70;0.60;;;16.10;99.90;;;;;;5020655;28;20218;-61
2022/10/15 02:26:59;;;;;;;0.60;0.50;;;16.10;99.90;;;;;;5023506;28;20181;-61
2022/10/15 02:29:30;;;;;;;0.70;0.50;;;16.30;99.90;;;;;;5026044;28;20639;-61
2022/10/15 02:31:58;;;;;;;0.70;0.50;;;16.20;99.90;;;;;;5026548;28;20182;-61
2022/10/15 02:34:28;;;;;;;0.60;0.50;;;16.30;99.90;;;;;;5023504;28;20287;-61
2022/10/15 02:37:00;;;;;;;0.73;0.57;;;16.00;99.90;;;;;;5029744;28;20278;-61
2022/10/15 02:39:25;;;;;;;0.60;0.50;;;16.40;99.90;;;;;;5020919;28;20553;-61
2022/10/15 02:41:52;;;;;;;1.40;0.53;;;16.30;99.90;;;;;;5025563;28;20209;-61
2022/10/15 02:44:18;;;;;;;0.60;0.50;;;16.20;99.90;;;;;;5028424;28;20217;-61
2022/10/15 02:46:44;;;;;;;0.75;0.52;;;16.50;99.90;;;;;;5025702;28;20182;-63
2022/10/15 02:49:09;;;;;;;0.80;0.60;;;16.30;99.90;;;;;;5026632;28;20679;-63
2022/10/15 02:51:36;;;;;;;0.60;0.50;;;16.50;99.90;;;;;;5026660;28;20188;-64
2022/10/15 02:54:03;;;;;;;1.05;0.73;;;16.30;99.90;;;;;;5019983;28;20202;-63
2022/10/15 02:56:29;;;;;;;0.60;0.50;;;16.60;99.90;;;;;;5017318;28;20601;-64
2022/10/15 02:58:55;;;;;;;0.60;0.50;;;16.50;99.90;;;;;;5021921;28;20551;-64
2022/10/15 03:01:21;;;;;;;0.70;0.60;;;16.30;99.90;;;;;;5026336;28;20194;-64
2022/10/15 03:03:46;;;;;;;2.00;0.60;;;16.40;99.90;;;;;;5021171;28;20230;-64
2022/10/15 03:06:12;;;;;;;1.40;0.60;;;16.40;99.90;;;;;;5019800;28;20422;-64
2022/10/15 03:08:38;;;;;;;0.70;0.50;;;16.30;99.90;;;;;;5022882;28;20277;-64
2022/10/15 03:11:04;;;;;;;2.60;0.63;;;16.60;99.90;;;;;;5027892;28;20269;-65
2022/10/15 03:13:29;;;;;;;0.83;0.60;;;16.60;99.90;;;;;;5023731;28;20209;-64
2022/10/15 03:15:55;;;;;;;1.13;0.50;;;16.60;99.90;;;;;;5029195;28;20219;-64
2022/10/15 03:18:21;;;;;;;0.83;0.60;;;16.50;99.90;;;;;;5027437;28;20198;-64
2022/10/15 03:20:54;;;;;;;0.60;0.50;;;16.50;99.90;;;;;;5031562;28;21019;-64
2022/10/15 03:23:20;;;;;;;0.60;0.50;;;16.50;99.90;;;;;;5023790;28;20210;-64
2022/10/15 03:25:46;;;;;;;2.10;1.00;;;16.70;99.90;;;;;;5031542;28;20271;-64
2022/10/15 03:28:11;;;;;;;2.83;0.50;;;16.80;99.90;;;;;;5031098;28;20719;-62
2022/10/15 03:30:37;;;;;;;1.20;0.57;;;16.80;99.90;;;;;;5033876;28;20190;-62
2022/10/15 03:33:02;;;;;;;0.93;0.50;;;16.60;99.90;;;;;;5029076;28;20528;-62
2022/10/15 03:35:28;;;;;;;0.60;0.43;;;16.70;99.90;;;;;;5033462;28;20221;-61
2022/10/15 03:37:53;;;;;;;0.80;0.60;;;16.60;99.90;;;;;;5030202;28;20693;-62
2022/10/15 03:40:19;;;;;;;2.17;0.70;;;16.70;99.90;;;;;;5031115;28;20214;-62
2022/10/15 03:42:49;;;;;;;0.60;0.50;;;16.80;99.90;;;;;;5028987;28;20186;-62
2022/10/15 03:45:15;;;;;;;0.60;0.40;;;16.70;99.90;;;;;;5034243;28;20202;-64
2022/10/15 03:47:40;;;;;;;0.60;0.40;;;16.70;99.90;;;;;;5030660;28;20210;-64
2022/10/15 03:50:06;;;;;;;0.60;0.50;;;16.70;99.90;;;;;;5039856;28;20646;-63
2022/10/15 03:52:32;;;;;;;0.90;0.47;;;16.60;99.90;;;;;;5036135;28;20540;-64
2022/10/15 03:54:57;;;;;;;0.70;0.57;;;16.70;99.90;;;;;;5030698;28;20474;-62
2022/10/15 03:57:23;;;;;;;0.70;0.50;;;16.90;99.90;;;;;;5023956;28;20187;-62
2022/10/15 03:59:49;;;;;;;0.60;0.43;;;16.90;99.90;;;;;;5030561;28;20610;-62
2022/10/15 04:02:14;;;;;;;2.60;0.50;;;16.90;99.90;;;;;;5033536;28;20221;-62
2022/10/15 04:04:40;;;;;;;1.37;0.50;;;16.90;99.90;;;;;;5027646;28;20844;-62
2022/10/15 04:07:05;;;;;;;0.93;0.53;;;17.00;99.90;;;;;;5032738;28;20171;-62
2022/10/15 04:09:31;;;;;;;0.90;0.70;;;16.90;99.90;;;;;;5027001;28;20182;-63
2022/10/15 04:11:57;;;;;;;1.03;0.90;;;16.80;99.90;;;;;;5031643;28;20735;-63
2022/10/15 04:14:22;;;;;;;0.60;0.50;;;16.90;99.90;;;;;;5021933;28;20254;-62
2022/10/15 04:16:48;;;;;;;0.60;0.50;;;16.90;99.90;;;;;;5031172;28;20240;-63
2022/10/15 04:19:13;;;;;;;0.60;0.60;;;17.00;99.90;;;;;;5031477;28;20612;-62
2022/10/15 04:21:39;;;;;;;0.70;0.40;;;17.20;99.90;;;;;;5030562;28;20189;-62
2022/10/15 04:24:05;;;;;;;0.77;0.77;;;16.90;99.90;;;;;;5025634;28;20224;-62
2022/10/15 04:26:30;;;;;;;0.90;0.50;;;17.10;99.90;;;;;;5021945;28;20237;-62
2022/10/15 04:28:56;;;;;;;0.60;0.50;;;16.90;99.90;;;;;;5030901;28;20183;-62
2022/10/15 04:31:21;;;;;;;1.00;0.47;;;16.90;99.90;;;;;;5031419;28;20229;-63
2022/10/15 04:33:48;;;;;;;0.67;0.50;;;17.00;99.90;;;;;;5025029;28;20198;-62
2022/10/15 04:36:14;;;;;;;1.00;0.60;;;17.30;99.90;;;;;;5033682;28;20193;-62
2022/10/15 04:38:39;;;;;;;0.83;0.50;;;17.10;99.90;;;;;;5032564;28;20178;-62
2022/10/15 04:41:08;;;;;;;0.60;0.50;;;17.10;99.90;;;;;;5029889;28;20185;-63
2022/10/15 04:43:34;;;;;;;0.60;0.40;;;17.20;99.90;;;;;;5024871;28;20752;-63
2022/10/15 04:46:01;;;;;;;1.83;0.45;;;17.00;99.90;;;;;;5027359;28;20756;-63
2022/10/15 04:48:28;;;;;;;0.70;0.60;;;17.00;99.90;;;;;;5031276;28;20252;-63
2022/10/15 04:50:54;;;;;;;0.50;0.40;;;17.00;99.90;;;;;;5029212;28;20191;-64
2022/10/15 04:53:21;;;;;;;3.30;0.50;;;17.20;99.90;;;;;;5031802;28;20571;-63
2022/10/15 04:55:46;;;;;;;0.60;0.40;;;17.10;99.90;;;;;;5033775;28;20553;-63
2022/10/15 04:58:12;;;;;;;1.03;0.50;;;17.10;99.90;;;;;;5033460;28;20190;-64
2022/10/15 05:00:38;;;;;;;0.60;0.40;;;17.10;99.90;;;;;;5035646;28;20655;-63
2022/10/15 05:03:05;;;;;;;0.60;0.40;;;17.10;99.90;;;;;;5029499;28;20286;-63
2022/10/15 05:05:31;;;;;;;0.95;0.70;;;17.20;99.90;;;;;;5034052;28;20221;-64
2022/10/15 05:08:04;;;;;;;3.75;0.80;;;17.20;99.90;;;;;;5031235;28;20648;-64
2022/10/15 05:10:30;;;;;;;1.13;0.60;;;17.20;99.90;;;;;;5030972;28;20240;-63
2022/10/15 05:12:56;;;;;;;1.88;0.95;;;17.30;99.90;;;;;;5022135;28;20201;-63
2022/10/15 05:15:21;;;;;;;0.70;0.60;;;17.10;99.90;;;;;;5025982;28;20659;-63
2022/10/15 05:17:47;;;;;;;0.60;0.50;;;17.10;99.90;;;;;;5024552;28;20187;-66
2022/10/15 05:20:12;;;;;;;0.80;0.60;;;17.10;99.90;;;;;;5031467;28;20564;-64
2022/10/15 05:22:38;;;;;;;2.10;0.70;;;17.10;99.90;;;;;;5029750;28;20201;-63
2022/10/15 05:25:04;;;;;;;0.90;0.60;;;17.00;99.90;;;;;;5024712;28;20218;-63
2022/10/15 05:27:30;;;;;;;4.57;3.78;;;17.20;99.90;;;;;;5029134;28;20265;-63
2022/10/15 05:29:55;;;;;;;1.63;1.10;;;17.10;99.90;;;;;;5030262;28;20186;-63
2022/10/15 05:32:21;;;;;;;1.13;1.03;;;17.10;99.90;;;;;;5031655;28;20360;-65
2022/10/15 05:34:46;;;;;;;1.00;0.80;;;17.10;99.90;;;;;;5023609;28;20218;-63
2022/10/15 05:37:12;;;;;;;1.97;1.00;;;16.90;99.90;;;;;;5030172;28;20731;-64
2022/10/15 05:39:37;;;;;;;8.03;4.73;;;16.90;99.90;;;;;;5028972;28;20256;-63
2022/10/15 05:42:03;;;;;;;1.10;1.00;;;17.00;99.90;;;;;;5024949;28;20186;-64
2022/10/15 05:44:28;;;;;;;3.43;0.90;;;17.00;99.90;;;;;;5022947;28;20293;-64
2022/10/15 05:46:54;;;;;;;1.10;0.90;;;17.00;99.90;;;;;;5021330;28;20272;-63
2022/10/15 05:49:20;;;;;;;1.20;1.00;;;17.00;99.90;;;;;;5030649;28;20212;-64
2022/10/15 05:51:45;;;;;;;1.13;1.03;;;17.10;99.90;;;;;;5028560;28;20209;-63
2022/10/15 05:54:11;;;;;;;2.37;1.23;;;16.60;99.90;;;;;;5022187;28;20213;-63
2022/10/15 05:56:36;;;;;;;1.37;1.27;;;16.90;99.90;;;;;;5026072;28;20179;-63
2022/10/15 05:59:03;;;;;;;1.07;0.80;;;17.00;99.90;;;;;;5026632;28;20182;-64
2022/10/15 06:01:29;;;;;;;1.90;0.73;;;17.00;99.90;;;;;;5027473;28;20582;-63
2022/10/15 06:03:54;;;;;;;1.10;0.90;;;17.10;99.90;;;;;;5027277;28;20332;-64
2022/10/15 06:06:23;;;;;;;1.80;0.80;;;17.00;99.90;;;;;;5025316;28;20174;-64
2022/10/15 06:08:49;;;;;;;2.10;0.70;;;16.80;99.90;;;;;;5024698;28;20198;-64
2022/10/15 06:11:15;;;;;;;1.42;0.80;;;16.90;99.90;;;;;;5025295;28;20217;-63
2022/10/15 06:13:42;;;;;;;1.92;0.90;;;17.00;99.90;;;;;;5020696;28;20206;-64
2022/10/15 06:16:09;;;;;;;0.98;0.90;;;17.00;99.90;;;;;;5030462;28;20174;-63
2022/10/15 06:18:35;;;;;;;1.33;0.98;;;17.00;99.90;;;;;;5028120;28;20194;-63
2022/10/15 06:21:01;;;;;;;1.40;0.70;;;17.00;99.90;;;;;;5028353;28;20186;-64
2022/10/15 06:23:26;;;;;;;0.87;0.63;;;16.90;99.90;;;;;;5027576;28;20951;-63
2022/10/15 06:25:52;;;;;;;2.77;1.03;;;17.00;99.90;;;;;;5024672;28;20618;-63
2022/10/15 06:28:17;;;;;;;0.60;0.60;;;16.90;99.90;;;;;;5021677;28;20210;-64
2022/10/15 06:30:43;;;;;;;2.13;0.80;;;16.90;99.90;;;;;;5022654;28;20182;-64
2022/10/15 06:33:09;;;;;;;0.87;0.70;;;17.00;99.90;;;;;;5025517;28;20214;-64
2022/10/15 06:35:34;;;;;;;1.50;0.67;;;17.20;99.90;;;;;;5019521;28;20537;-64
2022/10/15 06:38:01;;;;;;;1.20;0.70;;;17.10;99.90;;;;;;5030013;28;20186;-63
2022/10/15 06:40:27;;;;;;;1.35;0.63;;;17.00;99.90;;;;;;5028233;28;20186;-64
2022/10/15 06:42:53;;;;;;;0.97;0.63;;;17.10;99.90;;;;;;5027604;28;20182;-63
2022/10/15 06:45:18;;;;;;;1.03;0.93;;;16.90;99.90;;;;;;5025958;28;20690;-65
2022/10/15 06:47:44;;;;;;;1.10;0.90;;;17.20;99.90;;;;;;5020469;28;20568;-67
2022/10/15 06:50:10;;;;;;;0.93;0.90;;;16.90;99.90;;;;;;5022821;28;20183;-64
2022/10/15 06:52:36;;;;;;;1.07;0.70;;;17.00;99.90;;;;;;5023717;28;20643;-63
2022/10/15 06:55:02;;;;;;;0.70;0.70;;;16.90;99.90;;;;;;5023970;28;20328;-65
2022/10/15 06:57:27;;;;;;;0.70;0.65;;;17.20;99.90;;;;;;5027587;28;20185;-68
2022/10/15 06:59:53;;;;;;;0.90;0.70;;;17.30;99.90;;;;;;5025329;28;20189;-68
2022/10/15 07:02:19;;;;;;;1.67;0.70;;;17.10;99.90;;;;;;5026180;28;20204;-68
2022/10/15 07:04:45;;;;;;;1.70;1.00;;;17.20;99.90;;;;;;5024758;28;20568;-67
2022/10/15 07:07:11;;;;;;;1.92;0.98;;;16.90;99.90;;;;;;5028606;28;20463;-67
2022/10/15 07:09:37;;;;;;;1.60;0.80;;;17.10;99.90;;;;;;5028824;28;20190;-70
2022/10/15 07:12:03;;;;;;;3.03;0.93;;;17.10;99.90;;;;;;5021350;28;20798;-70
2022/10/15 07:14:29;;;;;;;2.65;1.10;;;17.00;99.90;;;;;;5021819;28;20643;-66
2022/10/15 07:16:55;;;;;;;2.67;1.07;;;17.20;99.90;;;;;;5015268;28;20229;-70
2022/10/15 07:19:21;;;;;;;1.07;0.97;;;17.10;99.90;;;;;;5026583;28;20251;-68
2022/10/15 07:21:47;;;;;;;1.42;1.10;;;17.30;99.90;;;;;;5023788;28;20542;-68
2022/10/15 07:24:12;;;;;;;2.57;1.30;;;16.80;99.90;;;;;;5023065;28;20217;-68
2022/10/15 07:26:38;;;;;;;1.50;0.87;;;17.30;99.90;;;;;;5021931;28;20202;-65
2022/10/15 07:29:04;;;;;;;1.20;1.00;;;17.00;99.90;;;;;;5030689;28;20675;-62
2022/10/15 07:31:29;;;;;;;3.67;0.90;;;17.10;99.90;;;;;;5028735;28;20190;-67
2022/10/15 07:33:55;;;;;;;2.53;1.17;;;17.20;99.90;;;;;;5025732;28;20236;-67
2022/10/15 07:36:21;;;;;;;1.87;1.30;;;17.30;99.90;;;;;;5021211;28;20460;-65
2022/10/15 07:38:47;;;;;;;1.73;1.00;;;17.40;99.90;;;;;;5026088;28;20241;-66
2022/10/15 07:41:12;;;;;;;1.10;1.00;;;17.40;99.90;;;;;;5027301;28;20262;-61
2022/10/15 07:43:38;;;;;;;1.83;0.90;;;17.40;99.90;;;;;;5018716;28;20248;-69
2022/10/15 07:46:04;;;;;;;1.40;1.30;;;17.60;99.90;;;;;;5022993;28;20625;-69
2022/10/15 07:48:30;;;;;;;2.28;1.55;;;17.30;99.90;;;;;;5029460;28;20186;-69
2022/10/15 07:51:03;;;;;;;1.63;1.10;;;17.30;99.90;;;;;;5022879;28;20434;-65
2022/10/15 07:53:29;;;;;;;2.10;1.13;;;17.50;99.90;;;;;;5021769;28;20731;-63
2022/10/15 07:55:59;;;;;;;1.15;1.05;;;18.00;99.90;;;;;;5029689;28;20570;-62
2022/10/15 07:58:24;;;;;;;1.08;0.98;;;17.70;99.90;;;;;;5031350;28;20273;-62
2022/10/15 08:00:50;;;;;;;1.10;1.10;;;17.70;99.90;;;;;;5030649;28;20360;-61
2022/10/15 08:03:15;;;;;;;1.83;0.90;;;17.70;99.90;;;;;;5029026;28;20210;-63
2022/10/15 08:05:41;;;;;;;1.57;1.10;;;17.60;99.90;;;;;;5025408;28;20229;-63
2022/10/15 08:08:07;;;;;;;1.00;0.90;;;17.60;99.90;;;;;;5034145;28;20174;-63
2022/10/15 08:10:32;;;;;;;1.53;1.03;;;17.50;99.90;;;;;;5034371;28;20197;-63
2022/10/15 08:12:58;;;;;;;1.60;1.20;;;17.40;99.90;;;;;;5027938;28;20219;-63
2022/10/15 08:15:23;;;;;;;2.83;1.40;;;17.40;99.90;;;;;;5025654;28;20655;-63
2022/10/15 08:17:49;;;;;;;1.37;1.27;;;17.30;99.90;;;;;;5032079;28;20270;-63
2022/10/15 08:20:14;;;;;;;1.53;1.40;;;17.40;99.90;;;;;;5033646;28;20244;-63
2022/10/15 08:22:40;;;;;;;1.20;1.10;;;17.50;99.90;;;;;;5022321;28;20190;-63
2022/10/15 08:25:06;;;;;;;1.27;1.17;;;17.60;99.90;;;;;;5024715;28;20209;-63
2022/10/15 08:27:32;;;;;;;1.23;0.97;;;17.90;99.90;;;;;;5029823;28;20639;-63
2022/10/15 08:29:57;;;;;;;0.80;0.70;;;17.70;99.90;;;;;;5030856;28;20487;-63
2022/10/15 08:32:23;;;;;;;1.40;0.80;;;17.90;99.90;;;;;;5029916;28;20197;-63
2022/10/15 08:34:48;;;;;;;1.67;0.90;;;18.10;99.90;;;;;;5025153;28;20216;-63
2022/10/15 08:37:14;;;;;;;0.90;0.80;;;18.30;99.90;;;;;;5027566;28;20539;-67
2022/10/15 08:39:39;;;;;;;2.07;1.07;;;18.40;99.90;;;;;;5018561;28;20647;-66
2022/10/15 08:42:15;;;;;;;4.10;1.27;;;18.60;99.90;;;;;;5017914;28;20254;-67
2022/10/15 08:44:44;;;;;;;1.52;1.00;;;18.70;99.90;;;;;;5020488;28;20255;-66
2022/10/15 08:47:39;;;;;;;1.77;0.80;;;18.80;99.90;;;;;;5022078;28;20908;-66
2022/10/15 08:50:30;;;;;;;1.10;0.70;;;18.90;99.90;;;;;;5031800;28;20559;-66
2022/10/15 08:52:58;;;;;;;1.00;0.90;;;18.80;99.90;;;;;;5032846;28;20182;-66
2022/10/15 08:55:27;;;;;;;1.73;1.10;;;18.70;99.90;;;;;;5022327;28;20189;-68
2022/10/15 08:58:06;;;;;;;1.02;0.88;;;18.50;99.90;;;;;;5019057;28;20174;-66
2022/10/15 09:00:52;;;;;;;2.05;1.00;;;18.60;99.90;;;;;;5026093;28;20194;-66
2022/10/15 09:03:40;;;;;;;1.27;0.93;;;18.60;99.90;;;;;;5016490;28;20229;-67
2022/10/15 09:06:23;;;;;;;1.17;1.08;;;18.60;99.90;;;;;;5025445;28;20237;-66
2022/10/15 09:09:18;;;;;;;1.27;1.00;;;18.60;99.90;;;;;;5030009;28;20190;-66
2022/10/15 09:11:58;;;;;;;2.83;1.77;;;18.90;99.90;;;;;;5027281;28;20638;-66
2022/10/15 09:14:40;;;;;;;2.92;1.40;;;18.60;99.90;;;;;;5026997;28;20241;-65
2022/10/15 09:17:24;;;;;;;1.60;1.25;;;18.70;99.90;;;;;;5024378;28;20186;-66
2022/10/15 09:19:53;;;;;;;1.30;1.20;;;19.00;99.90;;;;;;5023698;28;20190;-65
2022/10/15 09:22:26;;;;;;;1.30;1.05;;;18.80;99.90;;;;;;5020778;28;20873;-65
2022/10/15 09:24:52;;;;;;;1.58;1.13;;;18.80;99.90;;;;;;5030253;28;20213;-66
2022/10/15 09:27:24;;;;;;;1.90;1.10;;;18.90;99.90;;;;;;5026789;28;20182;-67
2022/10/15 09:29:55;;;;;;;0.98;0.88;;;18.90;99.90;;;;;;5028036;28;20866;-66
2022/10/15 09:33:01;;;;;;;1.63;0.90;;;18.90;99.90;;;;;;5032563;28;20186;-66
2022/10/15 09:35:39;;;;;;;1.42;0.95;;;18.90;99.90;;;;;;5022558;28;20221;-66
2022/10/15 09:38:25;;;;;;;1.58;1.10;;;18.80;99.90;;;;;;5026919;28;20274;-64
2022/10/15 09:41:06;;;;;;;1.42;1.20;;;19.10;99.90;;;;;;5022543;28;20196;-64
2022/10/15 09:43:37;;;;;;;1.48;1.38;;;19.30;99.90;;;;;;5030030;28;20206;-64
2022/10/15 09:46:03;;;;;;;1.90;0.90;;;19.30;99.90;;;;;;5026754;28;20202;-65
2022/10/15 09:48:35;;;;;;;2.00;1.80;;;19.50;99.90;;;;;;5032649;28;20185;-64
2022/10/15 09:51:28;;;;;;;1.00;0.80;;;19.50;99.90;;;;;;5026852;28;20205;-64
2022/10/15 09:53:54;;;;;;;2.78;0.80;;;19.10;99.90;;;;;;5036228;28;20206;-64
2022/10/15 09:56:27;;;;;;;0.70;0.70;;;19.30;99.90;;;;;;5025664;28;20183;-64
2022/10/15 09:58:57;;;;;;;1.05;0.70;;;19.40;99.90;;;;;;5032892;28;20196;-64
2022/10/15 10:01:25;;;;;;;0.70;0.60;;;19.60;99.90;;;;;;5037135;28;20729;-64
2022/10/15 10:04:12;;;;;;;1.10;1.00;;;19.90;99.90;;;;;;5032316;28;20225;-64
2022/10/15 10:06:53;;;;;;;1.45;0.70;;;20.30;99.90;;;;;;5030208;28;20188;-64
2022/10/15 10:09:22;;;;;;;1.85;0.90;;;20.40;99.90;;;;;;5031147;28;20190;-64
2022/10/15 10:11:53;;;;;;;0.80;0.70;;;20.70;99.90;;;;;;5029048;28;20273;-64
2022/10/15 10:14:29;;;;;;;0.70;0.70;;;20.70;99.90;;;;;;5030933;28;20691;-64
2022/10/15 10:17:12;;;;;;;0.90;0.60;;;20.90;99.90;;;;;;5029500;28;20304;-65
2022/10/15 10:19:38;;;;;;;0.93;0.63;;;21.10;99.90;;;;;;5032696;28;20260;-65
2022/10/15 10:22:19;;;;;;;2.70;0.87;;;21.30;99.90;;;;;;5025698;28;20232;-65
2022/10/15 10:24:47;;;;;;;0.75;0.75;;;21.40;99.90;;;;;;5026587;28;20560;-65
2022/10/15 10:27:32;;;;;;;0.80;0.80;;;21.30;99.90;;;;;;5028646;28;20205;-65
2022/10/15 10:30:03;;;;;;;0.85;0.60;;;21.20;99.90;;;;;;5025809;28;20275;-65
2022/10/15 10:32:31;;;;;;;2.45;0.70;;;21.20;99.90;;;;;;5031337;28;20174;-65
2022/10/15 10:34:59;;;;;;;1.58;1.15;;;21.30;99.90;;;;;;5029025;28;21644;-64
2022/10/15 10:37:26;;;;;;;1.00;0.80;;;21.20;99.90;;;;;;5029987;28;20190;-65
2022/10/15 10:39:58;;;;;;;1.27;1.17;;;21.10;99.90;;;;;;5025128;28;20191;-65
2022/10/15 10:42:34;;;;;;;1.00;0.70;;;20.90;99.90;;;;;;5029770;28;20236;-64
2022/10/15 10:45:21;;;;;;;1.35;1.00;;;20.90;99.90;;;;;;5027500;28;20209;-64
2022/10/15 10:47:47;;;;;;;1.10;0.80;;;21.20;99.90;;;;;;5014714;28;20178;-65
2022/10/15 10:50:33;;;;;;;0.80;0.80;;;22.20;99.90;;;;;;5027468;28;20441;-65
2022/10/15 10:53:24;;;;;;;1.37;0.80;;;23.70;99.90;;;;;;5025951;28;20432;-65
2022/10/15 10:55:53;;;;;;;1.10;1.00;;;23.90;98.30;;;;;;5022804;28;20439;-65
2022/10/15 10:58:21;;;;;;;2.73;0.77;;;24.10;97.80;;;;;;5022721;28;20866;-64
2022/10/15 11:00:51;;;;;;;1.10;1.00;;;24.00;97.20;;;;;;5021275;28;20448;-64
2022/10/15 11:03:37;;;;;;;1.03;0.93;;;23.70;97.50;;;;;;5029591;28;20474;-66
2022/10/15 11:06:18;;;;;;;0.80;0.70;;;23.10;97.90;;;;;;5025129;28;20496;-67
2022/10/15 11:08:59;;;;;;;1.57;0.80;;;22.90;98.30;;;;;;5026790;28;20452;-65
2022/10/15 11:11:49;;;;;;;1.33;0.80;;;22.70;98.50;;;;;;5029604;28;20444;-66
2022/10/15 11:14:32;;;;;;;1.07;0.97;;;22.40;99.40;;;;;;5025519;28;20480;-65
2022/10/15 11:17:19;;;;;;;5.70;1.35;;;22.30;99.70;;;;;;5035978;28;20420;-66
2022/10/15 11:19:57;;;;;;;2.53;1.10;;;22.20;99.90;;;;;;5026921;28;20265;-65
2022/10/15 11:22:26;;;;;;;2.45;1.08;;;21.30;99.80;;;;;;5028395;28;20440;-66
2022/10/15 11:25:30;;;;;;;1.50;1.03;;;21.50;99.90;;;;;;5029354;28;20221;-65
2022/10/15 11:28:13;;;;;;;2.10;1.10;;;21.30;99.90;;;;;;5021006;28;20444;-65
2022/10/15 11:31:00;;;;;;;1.50;0.90;;;21.30;99.90;;;;;;5027515;28;20180;-65
2022/10/15 11:33:36;;;;;;;2.15;1.27;;;21.20;99.90;;;;;;5023466;28;20202;-65
2022/10/15 11:36:02;;;;;;;1.65;1.00;;;21.10;99.90;;;;;;5023903;28;20583;-66
2022/10/15 11:38:36;;;;;;;2.80;1.00;;;21.10;99.90;;;;;;5024532;28;20194;-65
2022/10/15 11:41:11;;;;;;;1.10;1.00;;;21.00;99.90;;;;;;5019840;28;20201;-65
2022/10/15 11:43:36;;;;;;;5.07;0.90;;;20.90;99.90;;;;;;5026925;28;20744;-66
2022/10/15 11:46:31;;;;;;;1.73;1.23;;;20.90;99.90;;;;;;5027156;28;20214;-65
2022/10/15 11:49:23;;;;;;;1.55;0.90;;;21.10;99.90;;;;;;5031874;28;20704;-65
2022/10/15 11:52:06;;;;;;;2.25;0.90;;;21.10;99.90;;;;;;5030548;28;20194;-67
2022/10/15 11:54:41;;;;;;;2.38;0.80;;;21.30;99.90;;;;;;5026328;28;20703;-66
2022/10/15 11:57:14;;;;;;;1.45;0.90;;;21.20;99.90;;;;;;5030021;28;20782;-66
2022/10/15 11:59:53;;;;;;;1.80;1.15;;;21.20;99.90;;;;;;5033598;28;20269;-65
2022/10/15 12:02:30;;;;;;;1.65;1.00;;;21.30;99.90;;;;;;5033351;28;20226;-66
2022/10/15 12:05:01;;;;;;;1.00;0.80;;;21.50;99.90;;;;;;5029752;28;20797;-65
2022/10/15 12:07:32;;;;;;;2.55;0.73;;;21.50;99.50;;;;;;5029694;28;20308;-66
2022/10/15 12:10:08;;;;;;;1.17;0.80;;;21.60;99.70;;;;;;5023783;28;20186;-65
2022/10/15 12:13:12;;;;;;;2.72;0.70;;;21.40;99.30;;;;;;5022539;28;20216;-66
2022/10/15 12:15:41;;;;;;;1.48;0.90;;;21.10;99.90;;;;;;4987857;28;20564;-66
2022/10/15 12:18:31;;;;;;;1.73;1.00;;;21.10;99.90;;;;;;4986842;28;20707;-66
2022/10/15 12:20:58;;;;;;;1.92;1.00;;;21.00;99.90;;;;;;5014491;28;20206;-63
2022/10/15 12:23:35;;;;;;;0.80;0.80;;;21.10;99.90;;;;;;5027541;28;20204;-64
2022/10/15 12:26:01;;;;;;;1.45;0.80;;;21.00;99.90;;;;;;5026185;28;20210;-66
2022/10/15 12:28:30;;;;;;;1.00;0.90;;;20.60;99.90;;;;;;5030119;28;20197;-64
2022/10/15 12:31:03;;;;;;;1.20;0.90;;;21.00;99.90;;;;;;5029929;28;20190;-65
2022/10/15 12:33:56;;;;;;;0.80;0.80;;;20.90;99.80;;;;;;5029955;28;20205;-65
2022/10/15 12:36:28;;;;;;;1.17;0.70;;;20.90;99.90;;;;;;5024641;28;20190;-65
2022/10/15 12:39:05;;;;;;;1.67;0.90;;;20.90;99.90;;;;;;5029401;28;20175;-66
2022/10/15 12:41:38;;;;;;;1.17;0.85;;;20.90;99.90;;;;;;5029633;28;20188;-66
2022/10/15 12:44:17;;;;;;;2.20;1.25;;;20.90;99.90;;;;;;5023840;28;20202;-65
2022/10/15 12:46:42;;;;;;;1.55;0.90;;;20.80;99.90;;;;;;5030357;28;20193;-65
2022/10/15 12:49:26;;;;;;;1.40;0.90;;;20.80;99.90;;;;;;5031991;28;20178;-65
2022/10/15 12:51:56;;;;;;;1.35;0.82;;;20.70;99.90;;;;;;5029381;28;20170;-65
2022/10/15 12:54:33;;;;;;;1.83;0.82;;;20.60;99.90;;;;;;5030807;28;20214;-66
2022/10/15 12:57:00;;;;;;;1.45;0.82;;;20.50;99.90;;;;;;5026963;28;20185;-65
2022/10/15 12:59:43;;;;;;;3.28;1.17;;;20.40;99.90;;;;;;5031873;28;20218;-66
2022/10/15 13:02:42;;;;;;;1.90;0.95;;;20.40;99.90;;;;;;5028373;28;20194;-65
2022/10/15 13:05:23;;;;;;;1.00;0.85;;;20.10;99.90;;;;;;5027259;28;20224;-65
2022/10/15 13:07:50;;;;;;;2.30;1.20;;;20.00;99.90;;;;;;5025326;28;20183;-65